createdAt,value
2023-02-11T00:01:41.280Z,101640.97
2023-02-11T00:04:08.975Z,101642.81
2023-02-11T00:06:36.686Z,101641.94
2023-02-11T00:09:04.826Z,101641.94
2023-02-11T00:11:32.579Z,101638.38
2023-02-11T00:14:00.270Z,101635.69
2023-02-11T00:16:28.079Z,101617.91
2023-02-11T00:18:55.745Z,101616.97
2023-02-11T00:21:24.069Z,101602.91
2023-02-11T00:23:51.702Z,101602.94
2023-02-11T00:26:19.352Z,101599.53
2023-02-11T00:28:47.030Z,101589.13
2023-02-11T00:31:14.766Z,101582.22
2023-02-11T00:33:42.813Z,101586.75
2023-02-11T00:36:10.720Z,101587.63
2023-02-11T00:38:38.342Z,101603.50
2023-02-11T00:41:06.087Z,101608.75
2023-02-11T00:43:34.111Z,101605.25
2023-02-11T00:46:02.210Z,101606.13
2023-02-11T00:48:29.860Z,101606.97
2023-02-11T00:50:57.529Z,101607.75
2023-02-11T00:53:25.278Z,101603.28
2023-02-11T00:55:52.888Z,101605.00
2023-02-11T00:58:20.719Z,101598.78
2023-02-11T01:00:48.395Z,101594.44
2023-02-11T01:03:16.016Z,101600.53
2023-02-11T01:05:45.017Z,101585.50
2023-02-11T01:08:12.615Z,101588.16
2023-02-11T01:10:40.604Z,101589.88
2023-02-11T01:13:08.255Z,101578.41
2023-02-11T01:15:36.295Z,101583.66
2023-02-11T01:18:04.143Z,101582.78
2023-02-11T01:20:31.949Z,101591.56
2023-02-11T01:22:59.931Z,101580.03
2023-02-11T01:25:27.688Z,101595.94
2023-02-11T01:27:55.393Z,101599.41
2023-02-11T01:30:23.026Z,101600.28
2023-02-11T01:32:50.707Z,101596.78
2023-02-11T01:35:18.697Z,101603.88
2023-02-11T01:37:46.322Z,101600.28
2023-02-11T01:40:13.921Z,101602.94
2023-02-11T01:42:41.705Z,101602.91
2023-02-11T01:45:09.313Z,101594.06
2023-02-11T01:47:37.095Z,101593.16
2023-02-11T01:50:05.065Z,101597.53
2023-02-11T01:52:32.658Z,101592.22
2023-02-11T01:55:17.726Z,101602.78
2023-02-11T01:57:45.951Z,101596.59
2023-02-11T02:00:13.557Z,101594.22
2023-02-11T02:02:41.195Z,101598.00
2023-02-11T02:05:08.808Z,101593.03
2023-02-11T02:07:36.390Z,101594.25
2023-02-11T02:10:04.592Z,101583.88
2023-02-11T02:12:32.174Z,101585.78
2023-02-11T02:14:59.812Z,101578.94
2023-02-11T02:17:27.477Z,101569.44
2023-02-11T02:19:55.060Z,101564.25
2023-02-11T02:22:22.882Z,101561.72
2023-02-11T02:24:50.518Z,101560.09
2023-02-11T02:27:18.118Z,101545.16
2023-02-11T02:29:45.679Z,101541.66
2023-02-11T02:32:13.635Z,101538.00
2023-02-11T02:34:41.549Z,101553.78
2023-02-11T02:37:09.136Z,101551.00
2023-02-11T02:39:36.762Z,101543.84
2023-02-11T02:42:04.372Z,101542.00
2023-02-11T02:44:31.988Z,101553.28
2023-02-11T02:47:00.008Z,101539.94
2023-02-11T02:49:27.652Z,101541.59
2023-02-11T02:51:55.287Z,101544.16
2023-02-11T02:54:23.331Z,101537.00
2023-02-11T02:56:50.924Z,101532.50
2023-02-11T02:59:18.889Z,101522.75
2023-02-11T03:01:47.222Z,101529.75
2023-02-11T03:04:14.845Z,101529.75
2023-02-11T03:06:42.425Z,101531.50
2023-02-11T03:09:11.528Z,101528.84
2023-02-11T03:11:39.829Z,101517.34
2023-02-11T03:14:07.465Z,101527.00
2023-02-11T03:16:39.396Z,101526.06
2023-02-11T03:19:07.040Z,101532.25
2023-02-11T03:21:34.607Z,101540.19
2023-02-11T03:24:02.583Z,101548.97
2023-02-11T03:26:30.181Z,101545.38
2023-02-11T03:28:57.801Z,101548.03
2023-02-11T03:31:25.513Z,101542.75
2023-02-11T03:33:53.195Z,101547.16
2023-02-11T03:36:20.784Z,101544.50
2023-02-11T03:38:48.838Z,101547.16
2023-02-11T03:41:16.424Z,101548.91
2023-02-11T03:43:44.006Z,101542.75
2023-02-11T03:46:11.654Z,101543.63
2023-02-11T03:48:39.837Z,101540.09
2023-02-11T03:51:07.421Z,101527.78
2023-02-11T03:53:35.034Z,101517.19
2023-02-11T03:56:02.841Z,101519.00
2023-02-11T03:58:30.416Z,101518.13
2023-02-11T04:01:02.343Z,101522.56
2023-02-11T04:03:30.004Z,101520.81
2023-02-11T04:05:57.651Z,101525.28
2023-02-11T04:08:25.258Z,101533.22
2023-02-11T04:10:52.823Z,101534.97
2023-02-11T04:13:21.044Z,101522.63
2023-02-11T04:15:49.188Z,101525.41
2023-02-11T04:18:16.868Z,101516.63
2023-02-11T04:20:44.567Z,101512.41
2023-02-11T04:23:12.556Z,101507.31
2023-02-11T04:25:40.328Z,101503.19
2023-02-11T04:28:08.030Z,101513.13
2023-02-11T04:30:35.663Z,101518.59
2023-02-11T04:33:03.227Z,101521.34
2023-02-11T04:35:30.807Z,101539.97
2023-02-11T04:37:58.795Z,101543.53
2023-02-11T04:40:26.368Z,101553.25
2023-02-11T04:42:53.976Z,101551.53
2023-02-11T04:45:22.012Z,101554.22
2023-02-11T04:47:49.608Z,101552.53
2023-02-11T04:50:17.736Z,101558.75
2023-02-11T04:52:45.356Z,101549.13
2023-02-11T04:55:12.930Z,101545.69
2023-02-11T04:57:40.522Z,101535.28
2023-02-11T05:00:08.410Z,101530.97
2023-02-11T05:02:36.034Z,101528.44
2023-02-11T05:08:13.260Z,101527.78
2023-02-11T05:10:40.872Z,101529.66
2023-02-11T05:13:09.122Z,101523.56
2023-02-11T05:15:36.790Z,101524.50
2023-02-11T05:18:04.369Z,101533.31
2023-02-11T05:20:31.971Z,101531.63
2023-02-11T05:22:59.628Z,101544.84
2023-02-11T05:25:27.778Z,101539.56
2023-02-11T05:27:55.487Z,101539.59
2023-02-11T05:30:23.534Z,101539.59
2023-02-11T05:32:51.236Z,101534.31
2023-02-11T05:35:18.805Z,101549.28
2023-02-11T05:37:47.008Z,101544.00
2023-02-11T05:40:14.619Z,101544.00
2023-02-11T05:42:42.223Z,101531.66
2023-02-11T05:45:09.877Z,101542.25
2023-02-11T05:47:37.479Z,101536.06
2023-02-11T05:50:05.650Z,101530.78
2023-02-11T05:52:33.664Z,101534.22
2023-02-11T05:55:01.449Z,101535.16
2023-02-11T05:57:29.052Z,101542.19
2023-02-11T05:59:56.741Z,101536.91
2023-02-11T06:02:24.930Z,101536.00
2023-02-11T06:04:52.500Z,101544.78
2023-02-11T06:07:20.097Z,101546.53
2023-02-11T06:09:47.659Z,101553.56
2023-02-11T06:12:15.317Z,101542.88
2023-02-11T06:14:43.955Z,101542.81
2023-02-11T06:17:13.366Z,101533.06
2023-02-11T06:19:42.271Z,101528.66
2023-02-11T06:22:09.907Z,101527.72
2023-02-11T06:25:00.029Z,101527.72
2023-02-11T06:27:26.153Z,101528.53
2023-02-11T06:29:53.718Z,101525.00
2023-02-11T06:32:39.822Z,101519.72
2023-02-11T06:35:11.746Z,101521.44
2023-02-11T06:37:40.352Z,101528.44
2023-02-11T06:40:07.984Z,101524.91
2023-02-11T06:42:36.358Z,101530.16
2023-02-11T06:45:06.218Z,101529.25
2023-02-11T06:47:33.904Z,101528.31
2023-02-11T06:50:01.793Z,101534.47
2023-02-11T06:52:29.392Z,101537.03
2023-02-11T06:54:57.046Z,101544.09
2023-02-11T06:57:24.763Z,101536.16
2023-02-11T06:59:53.675Z,101535.16
2023-02-11T07:02:21.886Z,101530.75
2023-02-11T07:04:49.519Z,101538.69
2023-02-11T07:07:17.122Z,101536.84
2023-02-11T07:09:44.792Z,101543.84
2023-02-11T07:12:12.504Z,101545.59
2023-02-11T07:14:40.462Z,101546.41
2023-02-11T07:17:08.412Z,101546.34
2023-02-11T07:19:36.081Z,101547.19
2023-02-11T07:22:03.718Z,101540.06
2023-02-11T07:24:31.401Z,101544.44
2023-02-11T07:26:59.231Z,101548.84
2023-02-11T07:29:26.802Z,101555.84
2023-02-11T07:31:54.490Z,101556.69
2023-02-11T07:34:22.278Z,101560.16
2023-02-11T07:36:50.249Z,101568.03
2023-02-11T07:39:20.508Z,101554.78
2023-02-11T07:41:49.483Z,101563.56
2023-02-11T07:44:17.168Z,101557.34
2023-02-11T07:46:45.738Z,101559.06
2023-02-11T07:49:13.470Z,101564.31
2023-02-11T07:51:41.726Z,101567.81
2023-02-11T07:54:09.398Z,101570.41
2023-02-11T07:56:37.199Z,101570.31
2023-02-11T07:59:04.805Z,101574.72
2023-02-11T08:01:32.852Z,101569.34
2023-02-11T08:04:01.075Z,101569.31
2023-02-11T08:06:28.716Z,101569.31
2023-02-11T08:08:56.401Z,101578.97
2023-02-11T08:11:24.125Z,101573.59
2023-02-11T08:13:51.977Z,101577.97
2023-02-11T08:16:20.314Z,101573.47
2023-02-11T08:18:48.115Z,101571.69
2023-02-11T08:21:15.851Z,101578.63
2023-02-11T08:23:43.936Z,101583.00
2023-02-11T08:26:11.845Z,101594.47
2023-02-11T08:28:40.776Z,101593.50
2023-02-11T08:31:08.554Z,101599.63
2023-02-11T08:33:36.352Z,101599.59
2023-02-11T08:36:04.334Z,101607.47
2023-02-11T08:38:32.112Z,101613.56
2023-02-11T08:41:00.042Z,101612.59
2023-02-11T08:43:27.779Z,101609.03
2023-02-11T08:45:55.977Z,101609.91
2023-02-11T08:48:23.828Z,101620.41
2023-02-11T08:50:51.455Z,101630.06
2023-02-11T08:53:19.681Z,101629.19
2023-02-11T08:55:47.422Z,101632.63
2023-02-11T08:58:16.487Z,101637.00
2023-02-11T09:00:45.824Z,101635.22
2023-02-11T09:03:13.953Z,101629.94
2023-02-11T09:05:42.513Z,101628.13
2023-02-11T09:08:10.730Z,101638.63
2023-02-11T09:10:38.450Z,101637.63
2023-02-11T09:13:06.190Z,101635.81
2023-02-11T09:15:34.002Z,101644.59
2023-02-11T09:18:03.195Z,101645.38
2023-02-11T09:20:31.036Z,101645.28
2023-02-11T09:22:58.695Z,101643.44
2023-02-11T09:25:26.431Z,101639.84
2023-02-11T09:27:54.211Z,101639.78
2023-02-11T09:30:23.707Z,101642.31
2023-02-11T09:32:51.655Z,101639.53
2023-02-11T09:35:19.555Z,101640.28
2023-02-11T09:37:47.363Z,101637.59
2023-02-11T09:40:15.085Z,101639.22
2023-02-11T09:42:43.539Z,101647.91
2023-02-11T09:45:11.387Z,101647.81
2023-02-11T09:47:39.178Z,101662.69
2023-02-11T09:50:06.926Z,101652.75
2023-02-11T09:52:35.155Z,101659.56
2023-02-11T09:55:04.045Z,101658.47
2023-02-11T09:57:31.756Z,101664.53
2023-02-11T09:59:59.448Z,101667.09
2023-02-11T10:02:27.542Z,101659.09
2023-02-11T10:04:55.460Z,101657.31
2023-02-11T10:07:23.632Z,101655.53
2023-02-11T10:09:51.607Z,101666.03
2023-02-11T10:12:19.449Z,101671.25
2023-02-11T10:14:47.747Z,101673.97
2023-02-11T10:17:15.808Z,101676.63
2023-02-11T10:19:44.594Z,101679.13
2023-02-11T10:22:12.454Z,101675.59
2023-02-11T10:24:40.383Z,101688.81
2023-02-11T10:27:08.281Z,101686.16
2023-02-11T10:29:36.204Z,101682.66
2023-02-11T10:32:04.733Z,101680.81
2023-02-11T10:34:32.617Z,101685.22
2023-02-11T10:37:01.036Z,101687.84
2023-02-11T10:39:29.268Z,101686.91
2023-02-11T10:41:57.028Z,101689.38
2023-02-11T10:44:25.955Z,101689.19
2023-02-11T10:46:54.771Z,101682.91
2023-02-11T10:49:22.655Z,101689.00
2023-02-11T10:51:50.457Z,101685.44
2023-02-11T10:54:19.740Z,101685.31
2023-02-11T10:56:48.109Z,101687.09
2023-02-11T10:59:15.922Z,101684.44
2023-02-11T11:01:44.012Z,101684.41
2023-02-11T11:04:11.968Z,101686.03
2023-02-11T11:06:39.797Z,101686.03
2023-02-11T11:09:08.412Z,101684.34
2023-02-11T11:11:36.219Z,101680.75
2023-02-11T11:14:04.603Z,101678.97
2023-02-11T11:16:32.578Z,101684.22
2023-02-11T11:19:00.591Z,101687.66
2023-02-11T11:21:30.130Z,101691.06
2023-02-11T11:23:58.051Z,101684.81
2023-02-11T11:26:25.897Z,101687.41
2023-02-11T11:28:53.637Z,101699.66
2023-02-11T11:31:21.553Z,101697.72
2023-02-11T11:33:50.124Z,101687.88
2023-02-11T11:36:18.039Z,101695.75
2023-02-11T11:38:46.107Z,101695.69
2023-02-11T11:41:13.876Z,101690.38
2023-02-11T11:43:42.004Z,101699.22
2023-02-11T11:46:10.540Z,101687.53
2023-02-11T11:48:38.528Z,101691.06
2023-02-11T11:51:06.447Z,101692.84
2023-02-11T11:53:34.685Z,101702.53
2023-02-11T11:56:02.479Z,101704.38
2023-02-11T11:58:31.092Z,101694.66
2023-02-11T12:00:59.173Z,101694.66
2023-02-11T12:03:27.107Z,101692.91
2023-02-11T12:05:55.247Z,101685.81
2023-02-11T12:08:23.301Z,101684.09
2023-02-11T12:10:52.370Z,101684.16
2023-02-11T12:13:20.490Z,101688.66
2023-02-11T12:15:48.548Z,101687.91
2023-02-11T12:18:16.290Z,101691.50
2023-02-11T12:20:44.295Z,101690.72
2023-02-11T12:23:13.012Z,101687.19
2023-02-11T12:25:40.932Z,101681.00
2023-02-11T12:28:08.912Z,101687.22
2023-02-11T12:30:36.868Z,101677.69
2023-02-11T12:33:05.152Z,101670.66
2023-02-11T12:35:33.522Z,101671.56
2023-02-11T12:38:02.721Z,101669.78
2023-02-11T12:40:30.689Z,101669.78
2023-02-11T12:43:24.484Z,101679.41
2023-02-11T12:45:53.589Z,101684.53
2023-02-11T12:48:23.154Z,101673.88
2023-02-11T12:50:51.203Z,101676.53
2023-02-11T12:53:19.142Z,101680.94
2023-02-11T12:55:46.944Z,101686.31
2023-02-11T12:58:15.573Z,101688.09
2023-02-11T13:00:43.424Z,101697.84
2023-02-11T13:03:11.277Z,101685.50
2023-02-11T13:05:39.192Z,101689.97
2023-02-11T13:08:07.082Z,101686.44
2023-02-11T13:10:36.984Z,101678.47
2023-02-11T13:13:20.115Z,101669.66
2023-02-11T13:15:47.914Z,101672.19
2023-02-11T13:18:18.087Z,101664.19
2023-02-11T13:20:47.329Z,101664.97
2023-02-11T13:23:15.178Z,101660.47
2023-02-11T13:25:42.971Z,101672.81
2023-02-11T13:28:10.926Z,101674.53
2023-02-11T13:30:41.193Z,101669.13
2023-02-11T13:33:09.535Z,101662.00
2023-02-11T13:35:37.517Z,101657.53
2023-02-11T13:38:05.285Z,101660.09
2023-02-11T13:40:33.418Z,101663.56
2023-02-11T13:43:01.279Z,101667.94
2023-02-11T13:45:29.787Z,101669.66
2023-02-11T13:47:57.586Z,101659.84
2023-02-11T13:50:25.593Z,101669.47
2023-02-11T13:52:53.962Z,101669.41
2023-02-11T13:55:21.787Z,101678.16
2023-02-11T13:57:50.345Z,101674.63
2023-02-11T14:00:18.233Z,101670.19
2023-02-11T14:03:03.414Z,101668.47
2023-02-11T14:05:48.445Z,101677.22
2023-02-11T14:08:35.785Z,101667.50
2023-02-11T14:11:08.699Z,101672.81
2023-02-11T14:13:37.359Z,101670.06
2023-02-11T14:16:05.314Z,101670.94
2023-02-11T14:18:33.092Z,101676.19
2023-02-11T14:21:03.461Z,101667.22
2023-02-11T14:23:31.490Z,101675.16
2023-02-11T14:25:59.607Z,101680.44
2023-02-11T14:28:27.532Z,101669.75
2023-02-11T14:30:55.862Z,101678.56
2023-02-11T14:33:23.849Z,101674.97
2023-02-11T14:35:53.154Z,101677.63
2023-02-11T14:38:21.110Z,101674.13
2023-02-11T14:40:49.288Z,101671.47
2023-02-11T14:43:17.545Z,101671.53
2023-02-11T14:45:46.218Z,101680.44
2023-02-11T14:48:14.512Z,101681.34
2023-02-11T14:50:42.618Z,101686.66
2023-02-11T14:53:10.466Z,101691.03
2023-02-11T14:55:38.438Z,101691.91
2023-02-11T14:58:06.689Z,101686.53
2023-02-11T15:00:34.877Z,101686.47
2023-02-11T15:03:02.895Z,101687.34
2023-02-11T15:05:31.051Z,101684.59
2023-02-11T15:07:58.903Z,101681.94
2023-02-11T15:10:27.078Z,101683.53
2023-02-11T15:12:55.583Z,101681.69
2023-02-11T15:15:23.425Z,101688.56
2023-02-11T15:17:51.314Z,101691.16
2023-02-11T15:20:19.705Z,101700.78
2023-02-11T15:22:47.639Z,101700.66
2023-02-11T15:25:17.085Z,101691.75
2023-02-11T15:27:45.019Z,101692.63
2023-02-11T15:30:13.101Z,101691.75
2023-02-11T15:32:41.408Z,101690.81
2023-02-11T15:35:12.677Z,101692.63
2023-02-11T15:37:40.658Z,101682.84
2023-02-11T15:40:08.512Z,101690.81
2023-02-11T15:42:50.894Z,101681.06
2023-02-11T15:45:21.472Z,101691.75
2023-02-11T15:47:49.824Z,101695.34
2023-02-11T15:50:17.667Z,101694.59
2023-02-11T15:52:45.478Z,101700.91
2023-02-11T15:55:13.457Z,101701.91
2023-02-11T15:57:41.284Z,101696.72
2023-02-11T16:00:09.692Z,101698.59
2023-02-11T16:02:45.162Z,101696.88
2023-02-11T16:05:13.119Z,101710.19
2023-02-11T16:07:41.026Z,101702.28
2023-02-11T16:10:09.723Z,101705.84
2023-02-11T16:12:37.643Z,101703.25
2023-02-11T16:15:05.864Z,101709.47
2023-02-11T16:17:33.829Z,101712.13
2023-02-11T16:20:01.942Z,101717.44
2023-02-11T16:22:30.925Z,101716.59
2023-02-11T16:24:58.857Z,101721.00
2023-02-11T16:27:28.723Z,101713.97
2023-02-11T16:29:56.677Z,101722.81
2023-02-11T16:32:24.785Z,101721.94
2023-02-11T16:34:53.257Z,101725.59
2023-02-11T16:37:21.399Z,101729.13
2023-02-11T16:39:49.485Z,101730.03
2023-02-11T16:42:17.341Z,101734.47
2023-02-11T16:44:45.731Z,101742.38
2023-02-11T16:47:13.891Z,101739.72
2023-02-11T16:49:42.188Z,101741.50
2023-02-11T16:52:10.292Z,101747.63
2023-02-11T16:54:38.141Z,101751.13
2023-02-11T16:57:06.034Z,101749.41
2023-02-11T16:59:34.364Z,101753.78
2023-02-11T17:02:02.750Z,101748.47
2023-02-11T17:04:30.805Z,101751.13
2023-02-11T17:06:59.179Z,101745.81
2023-02-11T17:09:30.137Z,101753.72
2023-02-11T17:11:58.801Z,101747.53
2023-02-11T17:14:26.900Z,101754.56
2023-02-11T17:16:54.781Z,101765.19
2023-02-11T17:19:22.622Z,101762.53
2023-02-11T17:21:50.601Z,101762.47
2023-02-11T17:24:18.884Z,101758.91
2023-02-11T17:26:47.040Z,101765.09
2023-02-11T17:29:14.906Z,101765.09
2023-02-11T17:31:42.903Z,101772.16
2023-02-11T17:34:10.995Z,101773.03
2023-02-11T17:36:39.111Z,101775.59
2023-02-11T17:39:08.401Z,101776.53
2023-02-11T17:41:36.334Z,101780.06
2023-02-11T17:44:04.246Z,101780.84
2023-02-11T17:46:32.566Z,101786.16
2023-02-11T17:49:01.061Z,101788.81
2023-02-11T17:51:30.515Z,101796.72
2023-02-11T17:53:58.384Z,101781.63
2023-02-11T17:56:26.227Z,101786.94
2023-02-11T17:58:54.185Z,101785.16
2023-02-11T18:01:22.212Z,101787.81
2023-02-11T18:03:50.354Z,101788.66
2023-02-11T18:06:18.290Z,101791.41
2023-02-11T18:08:46.270Z,101792.25
2023-02-11T18:11:15.335Z,101799.28
2023-02-11T18:13:44.185Z,101803.75
2023-02-11T18:16:16.075Z,101801.09
2023-02-11T18:18:43.982Z,101805.47
2023-02-11T18:21:11.944Z,101819.66
2023-02-11T18:23:40.050Z,101817.03
2023-02-11T18:26:08.331Z,101812.56
2023-02-11T18:28:37.001Z,101820.50
2023-02-11T18:31:05.161Z,101815.16
2023-02-11T18:33:33.099Z,101815.16
2023-02-11T18:36:01.257Z,101818.75
2023-02-11T18:38:29.790Z,101820.50
2023-02-11T18:40:57.957Z,101810.72
2023-02-11T18:43:25.928Z,101807.25
2023-02-11T18:45:54.367Z,101808.91
2023-02-11T18:48:22.512Z,101816.03
2023-02-11T18:50:50.833Z,101813.38
2023-02-11T18:53:19.019Z,101814.22
2023-02-11T18:55:46.964Z,101816.88
2023-02-11T18:58:15.618Z,101809.84
2023-02-11T19:00:43.593Z,101817.81
2023-02-11T19:03:12.033Z,101826.66
2023-02-11T19:05:40.098Z,101824.84
2023-02-11T19:08:08.375Z,101833.72
2023-02-11T19:10:36.244Z,101828.47
2023-02-11T19:13:04.019Z,101834.66
2023-02-11T19:15:32.636Z,101838.25
2023-02-11T19:18:00.717Z,101839.09
2023-02-11T19:20:33.555Z,101852.38
2023-02-11T19:23:01.535Z,101848.88
2023-02-11T19:25:29.435Z,101845.31
2023-02-11T19:27:57.887Z,101849.78
2023-02-11T19:30:26.200Z,101846.25
2023-02-11T19:32:57.289Z,101853.28
2023-02-11T19:35:25.257Z,101849.78
2023-02-11T19:37:53.014Z,101850.63
2023-02-11T19:40:21.851Z,101856.81
2023-02-11T19:42:50.011Z,101859.47
2023-02-11T19:45:17.870Z,101855.09
2023-02-11T19:47:45.716Z,101860.47
2023-02-11T19:50:13.691Z,101866.66
2023-02-11T19:52:42.371Z,101873.69
2023-02-11T19:55:10.329Z,101873.69
2023-02-11T19:57:38.441Z,101878.97
2023-02-11T20:00:06.428Z,101881.69
2023-02-11T20:02:34.844Z,101879.91
2023-02-11T20:05:04.791Z,101880.81
2023-02-11T20:07:32.730Z,101879.91
2023-02-11T20:10:00.578Z,101875.50
2023-02-11T20:12:28.580Z,101871.13
2023-02-11T20:14:56.508Z,101872.84
2023-02-11T20:17:24.698Z,101877.31
2023-02-11T20:19:53.092Z,101879.09
2023-02-11T20:22:21.161Z,101880.81
2023-02-11T20:24:49.288Z,101883.53
2023-02-11T20:27:19.744Z,101879.97
2023-02-11T20:29:48.239Z,101882.63
2023-02-11T20:32:16.500Z,101890.63
2023-02-11T20:34:44.496Z,101895.94
2023-02-11T20:37:12.552Z,101891.50
2023-02-11T20:39:42.053Z,101888.03
2023-02-11T20:42:10.391Z,101887.97
2023-02-11T20:44:38.469Z,101892.44
2023-02-11T20:47:06.819Z,101890.63
2023-02-11T20:49:34.848Z,101888.03
2023-02-11T20:52:02.782Z,101889.78
2023-02-11T20:54:31.204Z,101894.22
2023-02-11T20:57:00.326Z,101908.34
2023-02-11T20:59:28.090Z,101918.09
2023-02-11T21:01:56.853Z,101925.13
2023-02-11T21:04:24.917Z,101922.47
2023-02-11T21:06:53.639Z,101923.41
2023-02-11T21:09:22.760Z,101920.69
2023-02-11T21:11:51.612Z,101923.34
2023-02-11T21:14:19.446Z,101922.47
2023-02-11T21:16:47.451Z,101918.97
2023-02-11T21:19:15.894Z,101927.78
2023-02-11T21:21:44.348Z,101927.78
2023-02-11T21:24:12.439Z,101916.31
2023-02-11T21:26:40.469Z,101918.09
2023-02-11T21:29:08.592Z,101919.88
2023-02-11T21:31:37.639Z,101923.41
2023-02-11T21:34:06.236Z,101921.63
2023-02-11T21:36:34.113Z,101917.22
2023-02-11T21:39:02.137Z,101918.09
2023-02-11T21:41:30.119Z,101921.63
2023-02-11T21:43:58.509Z,101920.75
2023-02-11T21:46:26.766Z,101915.44
2023-02-11T21:48:54.810Z,101923.41
2023-02-11T21:51:22.721Z,101930.53
2023-02-11T21:53:51.073Z,101923.41
2023-02-11T21:56:19.676Z,101928.81
2023-02-11T21:58:47.542Z,101929.69
2023-02-11T22:01:15.429Z,101930.56
2023-02-11T22:03:43.307Z,101925.22
2023-02-11T22:06:11.195Z,101926.16
2023-02-11T22:08:39.236Z,101935.84
2023-02-11T22:11:07.350Z,101939.34
2023-02-11T22:13:35.275Z,101940.22
2023-02-11T22:16:03.569Z,101939.31
2023-02-11T22:18:31.734Z,101944.56
2023-02-11T22:21:00.145Z,101944.56
2023-02-11T22:23:28.475Z,101945.44
2023-02-11T22:25:56.554Z,101957.75
2023-02-11T22:28:25.578Z,101956.88
2023-02-11T22:30:53.322Z,101958.59
2023-02-11T22:33:21.809Z,101959.44
2023-02-11T22:35:49.896Z,101959.44
2023-02-11T22:38:18.164Z,101965.63
2023-02-11T22:40:45.958Z,101971.78
2023-02-11T22:43:13.772Z,101967.41
2023-02-11T22:45:41.942Z,101977.09
2023-02-11T22:48:10.240Z,101974.44
2023-02-11T22:50:37.910Z,101970.00
2023-02-11T22:53:05.692Z,101975.28
2023-02-11T22:55:33.460Z,101971.75
2023-02-11T22:58:01.477Z,101975.28
2023-02-11T23:00:31.271Z,101980.63
2023-02-11T23:02:59.152Z,101985.94
2023-02-11T23:05:26.881Z,101985.94
2023-02-11T23:07:54.564Z,101990.31
2023-02-11T23:10:22.665Z,101998.28
2023-02-11T23:12:50.374Z,101998.28
2023-02-11T23:15:18.110Z,102000.94
2023-02-11T23:17:45.903Z,102003.53
2023-02-11T23:20:13.616Z,102000.00
2023-02-11T23:22:42.066Z,102004.38
2023-02-11T23:25:10.326Z,102002.63
2023-02-11T23:27:38.101Z,102000.81
2023-02-11T23:30:05.998Z,101992.84
2023-02-11T23:32:33.910Z,101996.38
2023-02-11T23:35:01.959Z,101992.84
2023-02-11T23:37:29.830Z,101999.03
2023-02-11T23:39:57.535Z,101996.44
2023-02-11T23:42:25.283Z,101994.69
2023-02-11T23:44:53.265Z,101990.28
2023-02-11T23:47:21.273Z,101992.91
2023-02-11T23:49:48.906Z,101997.34
2023-02-11T23:52:16.592Z,101994.69
2023-02-11T23:54:45.746Z,101992.97
2023-02-11T23:57:13.359Z,101996.56
2023-02-11T23:59:43.104Z,101996.59
